Time;durP1;ratioP1;P1;durP2;ratioP2;P2;SDS_P1;SDS_P2;PMS_P1;PMS_P2;Temp;Humidity;BMP_temperature;BMP_pressure;BME280_temperature;BME280_humidity;BME280_pressure;Samples;Min_cycle;Max_cycle;Signal;HPM_P1;HPM_P2
2021/09/26 00:00:47;;;;;;;10.38;7.80;;;;;;;23.23;56.17;101595.34;5034727;28;20677;-73
2021/09/26 00:03:13;;;;;;;11.30;8.23;;;;;;;23.23;56.12;101595.34;5034313;28;20407;-74
2021/09/26 00:05:38;;;;;;;10.13;8.23;;;;;;;23.17;56.10;101591.59;5039440;28;20094;-73
2021/09/26 00:08:04;;;;;;;11.82;8.63;;;;;;;23.16;56.40;101593.44;5032841;28;20052;-74
2021/09/26 00:10:30;;;;;;;10.63;8.10;;;;;;;23.19;56.39;101594.91;5020464;28;20505;-74
2021/09/26 00:12:56;;;;;;;11.70;8.57;;;;;;;23.14;56.33;101589.28;5032883;28;20048;-74
2021/09/26 00:15:22;;;;;;;11.63;8.52;;;;;;;23.13;56.20;101591.13;5032203;28;20068;-73
2021/09/26 00:17:49;;;;;;;11.25;8.35;;;;;;;23.17;56.38;101600.41;5032835;28;20068;-74
2021/09/26 00:20:16;;;;;;;11.77;8.52;;;;;;;23.10;56.54;101590.66;5034609;28;20048;-74
2021/09/26 00:22:42;;;;;;;11.25;8.40;;;;;;;23.11;56.46;101590.47;5044199;28;20053;-74
2021/09/26 00:25:09;;;;;;;9.93;7.93;;;;;;;22.98;56.58;101569.06;5045811;28;20066;-74
2021/09/26 00:27:35;;;;;;;10.50;7.75;;;;;;;23.09;56.54;101584.53;5044199;28;20106;-74
2021/09/26 00:30:01;;;;;;;13.10;9.20;;;;;;;23.17;56.43;101594.25;5041841;28;20854;-74
2021/09/26 00:32:27;;;;;;;11.90;8.77;;;;;;;23.02;56.33;101575.66;5027201;28;20029;-74
2021/09/26 00:34:52;;;;;;;12.52;8.85;;;;;;;23.10;56.22;101588.00;5038908;28;20456;-74
2021/09/26 00:37:20;;;;;;;11.35;8.50;;;;;;;23.02;56.20;101569.53;5030942;28;20040;-74
2021/09/26 00:39:46;;;;;;;10.93;8.43;;;;;;;23.05;56.24;101580.59;5023422;28;20044;-73
2021/09/26 00:42:12;;;;;;;11.40;8.48;;;;;;;23.11;56.44;101584.34;5046282;28;20086;-74
2021/09/26 00:44:38;;;;;;;11.52;8.77;;;;;;;23.10;56.21;101577.38;5038464;28;20033;-74
2021/09/26 00:47:04;;;;;;;12.70;8.65;;;;;;;23.06;56.42;101576.09;5046588;28;20040;-74
2021/09/26 00:49:29;;;;;;;12.70;8.70;;;;;;;23.08;56.22;101574.91;5030944;28;20115;-74
2021/09/26 00:51:55;;;;;;;14.20;9.43;;;;;;;23.05;56.34;101574.47;5048744;28;20053;-74
2021/09/26 00:54:21;;;;;;;12.43;8.63;;;;;;;23.07;56.59;101575.91;5043240;28;20170;-74
2021/09/26 00:56:48;;;;;;;12.43;8.38;;;;;;;23.06;56.25;101558.34;5043828;28;20033;-74
2021/09/26 00:59:18;;;;;;;11.75;8.80;;;;;;;23.03;56.47;101565.84;5027678;28;20032;-74
2021/09/26 01:01:44;;;;;;;11.93;8.38;;;;;;;23.04;56.48;101557.69;5029488;28;20448;-74
2021/09/26 01:04:10;;;;;;;14.15;9.50;;;;;;;23.12;56.16;101565.56;5038519;28;20053;-74
2021/09/26 01:07:11;;;;;;;11.73;8.70;;;;;;;23.17;55.91;101559.72;5026654;28;20160;-74
2021/09/26 01:10:02;;;;;;;14.75;9.85;;;;;;;23.15;56.06;101559.88;5030290;28;20384;-74
2021/09/26 01:12:50;;;;;;;10.52;8.00;;;;;;;23.15;55.99;101567.84;5040860;28;20043;-74
2021/09/26 01:15:42;;;;;;;11.10;8.35;;;;;;;23.11;55.89;101555.13;5045475;28;20466;-74
2021/09/26 01:18:17;;;;;;;14.15;9.05;;;;;;;23.05;56.12;101554.03;5037135;28;20040;-74
2021/09/26 01:20:45;;;;;;;11.68;8.75;;;;;;;23.12;56.31;101560.25;5035487;28;20037;-74
2021/09/26 01:23:20;;;;;;;12.25;8.68;;;;;;;23.13;56.33;101551.25;5046007;28;20025;-74
2021/09/26 01:26:21;;;;;;;10.65;8.20;;;;;;;23.07;56.22;101552.00;5030538;28;20059;-74
2021/09/26 01:29:04;;;;;;;12.13;8.95;;;;;;;23.02;56.45;101542.97;5047767;28;20045;-74
2021/09/26 01:31:51;;;;;;;11.32;8.50;;;;;;;22.93;56.14;101536.91;5031991;28;20047;-74
2021/09/26 01:34:26;;;;;;;11.45;8.23;;;;;;;23.05;56.43;101553.22;5039302;28;20085;-73
2021/09/26 01:37:06;;;;;;;10.85;7.90;;;;;;;22.86;56.23;101523.53;5041874;28;20033;-74
2021/09/26 01:39:40;;;;;;;11.77;8.98;;;;;;;23.00;56.24;101551.09;5046795;28;20041;-74
2021/09/26 01:42:10;;;;;;;10.48;7.80;;;;;;;23.04;56.44;101554.22;5037721;28;20464;-74
2021/09/26 01:44:51;;;;;;;11.00;8.55;;;;;;;23.07;55.99;101554.66;5048586;28;20107;-74
2021/09/26 01:47:24;;;;;;;11.38;8.52;;;;;;;22.95;56.10;101539.38;5046865;28;20056;-74
2021/09/26 01:50:00;;;;;;;11.48;8.15;;;;;;;23.04;56.47;101546.25;5034428;28;20063;-74
2021/09/26 01:52:30;;;;;;;10.68;8.50;;;;;;;23.01;56.18;101546.63;5026976;28;20036;-73
2021/09/26 01:54:57;;;;;;;9.50;7.97;;;;;;;22.90;56.62;101532.78;5041467;28;20040;-74
2021/09/26 01:57:23;;;;;;;10.25;8.15;;;;;;;22.99;56.43;101543.31;5041866;28;20098;-74
2021/09/26 01:59:51;;;;;;;12.30;9.27;;;;;;;22.99;56.39;101540.66;5022983;28;20037;-74
2021/09/26 02:02:24;;;;;;;14.15;9.48;;;;;;;22.92;56.38;101535.25;5040051;28;20147;-74
2021/09/26 02:04:53;;;;;;;13.27;8.63;;;;;;;22.83;56.54;101525.75;5046312;28;20120;-74
2021/09/26 02:07:20;;;;;;;12.52;8.23;;;;;;;23.00;56.52;101535.16;5044145;28;20467;-74
2021/09/26 02:09:47;;;;;;;11.57;8.70;;;;;;;22.90;56.46;101524.00;5035423;28;20056;-74
2021/09/26 02:12:14;;;;;;;11.75;8.57;;;;;;;22.92;56.57;101520.13;5016336;28;20781;-74
2021/09/26 02:14:42;;;;;;;12.18;8.85;;;;;;;22.91;56.30;101521.16;5034105;28;20037;-74
2021/09/26 02:17:09;;;;;;;15.07;9.13;;;;;;;22.84;56.36;101511.44;5025180;28;20068;-74
2021/09/26 02:19:36;;;;;;;11.30;8.27;;;;;;;22.92;56.52;101532.59;5033176;28;20132;-75
2021/09/26 02:22:04;;;;;;;12.60;8.50;;;;;;;22.84;56.45;101514.94;5025771;28;20041;-74
2021/09/26 02:24:31;;;;;;;11.10;8.45;;;;;;;22.87;56.53;101522.53;5024100;28;20039;-74
2021/09/26 02:26:57;;;;;;;11.95;8.90;;;;;;;22.89;56.51;101525.81;5031934;28;20045;-74
2021/09/26 02:29:23;;;;;;;9.98;7.97;;;;;;;22.88;56.44;101521.53;5036239;28;20633;-74
2021/09/26 02:31:49;;;;;;;11.40;8.38;;;;;;;22.91;56.28;101526.47;5025814;28;20033;-74
2021/09/26 02:34:15;;;;;;;10.43;7.55;;;;;;;22.84;56.24;101512.28;5045307;28;20180;-74
2021/09/26 02:36:40;;;;;;;11.82;8.35;;;;;;;22.92;56.35;101522.78;5040094;28;20453;-74
2021/09/26 02:39:06;;;;;;;10.65;8.18;;;;;;;22.89;56.43;101517.03;5038597;28;20049;-74
2021/09/26 02:41:39;;;;;;;15.10;8.10;;;;;;;22.84;56.32;101498.19;5043630;28;20049;-74
2021/09/26 02:44:34;;;;;;;10.30;7.90;;;;;;;22.79;56.40;101511.94;5031464;28;20491;-74
2021/09/26 02:47:07;;;;;;;11.13;8.07;;;;;;;22.89;56.71;101517.03;5045919;28;20045;-74
2021/09/26 02:49:33;;;;;;;11.25;8.50;;;;;;;22.91;56.65;101515.84;5020801;28;20585;-74
2021/09/26 02:51:59;;;;;;;10.93;8.15;;;;;;;22.89;56.46;101517.84;5030543;28;20133;-74
2021/09/26 02:54:26;;;;;;;10.45;8.20;;;;;;;22.89;56.37;101522.34;5033427;28;20048;-74
2021/09/26 02:56:52;;;;;;;12.35;8.70;;;;;;;22.82;56.43;101506.31;5044262;28;20037;-74
2021/09/26 02:59:20;;;;;;;10.50;7.65;;;;;;;22.86;56.38;101501.47;5034024;28;20065;-74
2021/09/26 03:01:53;;;;;;;9.73;7.95;;;;;;;22.90;56.53;101503.56;5040617;28;20048;-74
2021/09/26 03:04:20;;;;;;;10.73;7.72;;;;;;;22.88;56.15;101500.28;5036052;28;20026;-74
2021/09/26 03:06:46;;;;;;;11.07;8.55;;;;;;;22.79;56.64;101495.19;5044684;28;20041;-74
2021/09/26 03:09:12;;;;;;;10.95;8.32;;;;;;;22.60;56.55;101462.88;5025309;28;20045;-74
2021/09/26 03:11:38;;;;;;;10.95;7.93;;;;;;;22.81;56.20;101494.03;5025701;28;20044;-74
2021/09/26 03:14:03;;;;;;;11.70;8.82;;;;;;;22.86;56.38;101501.47;5038859;28;20135;-74
2021/09/26 03:16:29;;;;;;;11.65;8.27;;;;;;;;;;5030882;28;20128;-74
2021/09/26 03:18:55;;;;;;;11.95;8.52;;;;;;;22.81;56.69;101502.00;5045239;28;20119;-74
2021/09/26 03:21:20;;;;;;;9.98;7.88;;;;;;;22.87;56.45;101500.47;5038406;28;20060;-74
2021/09/26 03:23:46;;;;;;;9.95;7.60;;;;;;;22.84;56.37;101492.88;5042666;28;20071;-74
2021/09/26 03:26:11;;;;;;;11.40;8.15;;;;;;;22.89;56.23;101490.47;5022761;28;20099;-74
2021/09/26 03:28:37;;;;;;;10.38;8.02;;;;;;;22.81;56.10;101475.44;5038175;28;20466;-74
2021/09/26 03:31:03;;;;;;;13.60;8.18;;;;;;;22.78;56.76;101474.97;5019121;28;20037;-74
2021/09/26 03:33:28;;;;;;;10.65;8.00;;;;;;;22.78;56.71;101472.31;5039789;28;20029;-74
2021/09/26 03:35:54;;;;;;;10.95;7.88;;;;;;;22.84;56.56;101482.25;5036671;28;20805;-74
2021/09/26 03:38:20;;;;;;;10.57;7.95;;;;;;;22.79;56.29;101458.84;5034001;28;20075;-74
2021/09/26 03:40:45;;;;;;;11.15;8.35;;;;;;;22.75;56.39;101459.41;5019775;28;20026;-74
2021/09/26 03:43:11;;;;;;;11.18;8.38;;;;;;;22.77;56.51;101465.34;5019352;28;20127;-75
2021/09/26 03:45:37;;;;;;;9.75;8.02;;;;;;;22.76;56.61;101477.81;5038334;28;20041;-74
2021/09/26 03:48:03;;;;;;;9.30;7.25;;;;;;;22.87;56.19;101482.69;5050126;28;20071;-74
2021/09/26 03:50:29;;;;;;;11.10;7.80;;;;;;;22.65;56.51;101451.72;5043172;28;20033;-74
2021/09/26 03:52:54;;;;;;;9.70;7.55;;;;;;;22.85;56.20;101481.22;5030733;28;20387;-74
2021/09/26 03:55:20;;;;;;;10.95;7.90;;;;;;;22.78;56.27;101467.81;5046695;28;20041;-74
2021/09/26 03:57:46;;;;;;;11.60;7.90;;;;;;;22.84;56.58;101483.06;5045020;28;20042;-74
2021/09/26 04:00:14;;;;;;;8.95;7.45;;;;;;;22.81;56.45;101475.44;5018960;28;20704;-74
2021/09/26 04:02:40;;;;;;;9.73;7.82;;;;;;;22.76;56.64;101471.66;5037922;28;20044;-74
2021/09/26 04:05:07;;;;;;;11.00;7.82;;;;;;;22.80;56.61;101468.47;5044192;28;20033;-73
2021/09/26 04:07:33;;;;;;;11.45;8.27;;;;;;;22.81;56.25;101464.81;5033513;28;20037;-74
2021/09/26 04:09:58;;;;;;;11.18;7.88;;;;;;;22.69;56.44;101460.97;5043760;28;20045;-73
2021/09/26 04:12:24;;;;;;;10.20;7.75;;;;;;;22.85;56.46;101475.91;5041955;28;20044;-74
2021/09/26 04:14:50;;;;;;;9.45;7.20;;;;;;;22.88;56.17;101473.72;5038852;28;20037;-74
2021/09/26 04:17:15;;;;;;;11.27;8.35;;;;;;;22.87;56.31;101471.25;5035650;28;20053;-74
2021/09/26 04:19:41;;;;;;;10.18;7.57;;;;;;;22.80;56.37;101468.47;5021854;28;20053;-74
2021/09/26 04:22:07;;;;;;;10.63;7.75;;;;;;;22.72;56.32;101446.50;5036568;28;20037;-74
2021/09/26 04:24:32;;;;;;;9.85;7.55;;;;;;;22.78;56.19;101459.03;5028880;28;20540;-74
2021/09/26 04:26:58;;;;;;;10.10;7.90;;;;;;;22.79;56.47;101455.38;5042061;28;20045;-74
2021/09/26 04:29:23;;;;;;;10.80;8.05;;;;;;;22.78;56.42;101443.91;5037903;28;20029;-75
2021/09/26 04:31:49;;;;;;;11.73;8.00;;;;;;;22.85;56.31;101467.97;5040407;28;20064;-75
2021/09/26 04:34:15;;;;;;;10.00;7.47;;;;;;;22.73;56.53;101464.91;5031202;28;20052;-76
2021/09/26 04:36:41;;;;;;;9.75;7.82;;;;;;;22.65;56.33;101450.91;5042535;28;21841;-76
2021/09/26 04:39:06;;;;;;;10.07;8.00;;;;;;;22.71;56.51;101466.91;5040438;28;20904;-76
2021/09/26 04:41:32;;;;;;;11.02;8.13;;;;;;;22.77;56.28;101471.47;5026951;28;20045;-75
2021/09/26 04:43:58;;;;;;;10.10;8.23;;;;;;;22.63;56.52;101461.72;5035454;28;20036;-75
2021/09/26 04:46:24;;;;;;;9.30;7.03;;;;;;;22.76;56.24;101469.84;5045376;28;20052;-76
2021/09/26 04:48:49;;;;;;;10.02;7.65;;;;;;;22.71;56.44;101468.75;5030140;28;20865;-75
2021/09/26 04:51:15;;;;;;;9.73;7.72;;;;;;;22.63;56.32;101451.09;5043377;28;20067;-76
2021/09/26 04:53:41;;;;;;;14.15;7.90;;;;;;;22.80;56.33;101463.19;5045268;28;20040;-75
2021/09/26 04:56:07;;;;;;;11.77;8.43;;;;;;;22.72;56.22;101457.13;5040409;28;20044;-75
2021/09/26 04:58:32;;;;;;;9.32;7.57;;;;;;;22.77;56.55;101468.00;5040416;28;20049;-75
2021/09/26 05:00:58;;;;;;;12.63;8.52;;;;;;;22.72;56.59;101478.34;5044530;28;20593;-76
2021/09/26 05:03:24;;;;;;;10.55;8.02;;;;;;;22.70;56.40;101469.75;5048492;28;20111;-76
2021/09/26 05:05:49;;;;;;;10.75;7.70;;;;;;;22.70;56.55;101462.63;5034805;28;21305;-76
2021/09/26 05:08:15;;;;;;;12.68;7.82;;;;;;;22.78;56.33;101483.75;5024526;28;20510;-76
2021/09/26 05:10:40;;;;;;;11.57;7.55;;;;;;;22.78;56.48;101478.44;5037086;28;20498;-75
2021/09/26 05:13:06;;;;;;;11.20;7.95;;;;;;;22.74;56.14;101469.19;5018023;28;20055;-76
2021/09/26 05:15:31;;;;;;;10.02;7.40;;;;;;;22.74;56.20;101471.84;5022895;28;20061;-76
2021/09/26 05:17:57;;;;;;;9.00;7.75;;;;;;;22.73;56.17;101472.88;5031360;28;20045;-76
2021/09/26 05:20:23;;;;;;;11.20;8.07;;;;;;;22.69;56.68;101482.22;5035471;28;20052;-75
2021/09/26 05:22:49;;;;;;;10.60;7.40;;;;;;;22.69;56.24;101479.56;5008598;28;20056;-76
2021/09/26 05:25:16;;;;;;;10.50;8.10;;;;;;;22.73;56.30;101477.34;5041118;28;20487;-75
2021/09/26 05:27:41;;;;;;;10.32;7.55;;;;;;;22.62;56.79;101478.63;5039149;28;20097;-75
2021/09/26 05:30:08;;;;;;;8.02;6.88;;;;;;;22.70;56.34;101478.53;5041685;28;20068;-75
2021/09/26 05:32:34;;;;;;;10.98;7.65;;;;;;;22.69;56.49;101473.41;5040711;28;20041;-76
2021/09/26 05:34:59;;;;;;;10.18;8.18;;;;;;;22.74;56.26;101479.81;5017779;28;20403;-76
2021/09/26 05:37:25;;;;;;;9.75;7.80;;;;;;;22.64;56.37;101457.22;5038661;28;20034;-76
2021/09/26 05:39:51;;;;;;;9.23;7.40;;;;;;;22.68;56.42;101466.47;5044741;28;20044;-76
2021/09/26 05:42:16;;;;;;;8.70;7.43;;;;;;;22.69;56.42;101474.25;5043197;28;20037;-75
2021/09/26 05:44:42;;;;;;;9.00;7.50;;;;;;;22.70;56.60;101464.44;5022850;28;20110;-76
2021/09/26 05:47:07;;;;;;;10.07;6.97;;;;;;;22.62;56.36;101460.03;5047030;28;20049;-76
2021/09/26 05:49:36;;;;;;;11.00;8.07;;;;;;;22.73;56.44;101480.00;5026282;28;20037;-75
2021/09/26 05:52:04;;;;;;;9.30;7.45;;;;;;;22.63;56.33;101463.53;5042836;28;20036;-75
2021/09/26 05:54:31;;;;;;;8.95;7.32;;;;;;;22.70;56.30;101461.78;5045663;28;20043;-76
2021/09/26 05:56:57;;;;;;;9.40;7.43;;;;;;;22.57;56.39;101451.81;5044645;28;20043;-76
2021/09/26 05:59:22;;;;;;;9.57;7.00;;;;;;;22.75;56.03;101459.41;5046317;28;20041;-75
2021/09/26 06:01:48;;;;;;;8.20;6.75;;;;;;;22.65;56.60;101453.56;5043792;28;20032;-75
2021/09/26 06:04:13;;;;;;;9.25;7.43;;;;;;;22.72;56.22;101457.94;5033010;28;20083;-74
2021/09/26 06:06:39;;;;;;;8.63;6.75;;;;;;;22.70;56.03;101452.00;5043929;28;20024;-74
2021/09/26 06:09:04;;;;;;;10.80;7.03;;;;;;;22.74;56.19;101455.91;5033658;28;20111;-74
2021/09/26 06:11:30;;;;;;;8.77;7.18;;;;;;;22.73;56.47;101458.75;5002021;28;20040;-74
2021/09/26 06:13:55;;;;;;;9.43;7.43;;;;;;;22.71;56.04;101458.13;5042797;28;20040;-75
2021/09/26 06:16:21;;;;;;;10.05;7.57;;;;;;;22.73;56.13;101458.75;5045740;28;20033;-74
2021/09/26 06:18:46;;;;;;;9.73;7.68;;;;;;;22.73;56.22;101466.72;5042304;28;20041;-75
2021/09/26 06:21:12;;;;;;;9.13;6.70;;;;;;;22.69;56.28;101460.16;5036540;28;20455;-74
2021/09/26 06:23:37;;;;;;;9.20;7.30;;;;;;;22.66;56.19;101461.34;5044404;28;20037;-74
2021/09/26 06:26:03;;;;;;;8.27;6.70;;;;;;;22.73;56.05;101467.56;5040097;28;20545;-75
2021/09/26 06:28:28;;;;;;;9.13;7.15;;;;;;;22.70;56.33;101464.44;5044310;28;20029;-74
2021/09/26 06:30:54;;;;;;;9.57;7.22;;;;;;;22.60;56.41;101451.44;5043802;28;20045;-74
2021/09/26 06:33:20;;;;;;;9.18;7.18;;;;;;;22.71;56.02;101461.59;5040349;28;20561;-74
2021/09/26 06:35:45;;;;;;;8.88;6.90;;;;;;;22.68;56.15;101450.53;5043285;28;20052;-74
2021/09/26 06:38:11;;;;;;;8.90;7.18;;;;;;;22.73;56.19;101459.59;5045465;28;20403;-74
2021/09/26 06:40:37;;;;;;;8.95;7.55;;;;;;;22.69;56.01;101458.31;5045968;28;20108;-74
2021/09/26 06:43:02;;;;;;;8.13;6.80;;;;;;;22.71;56.16;101452.81;5047322;28;20091;-75
2021/09/26 06:45:28;;;;;;;8.25;7.20;;;;;;;22.70;56.32;101459.13;5040749;28;20033;-74
2021/09/26 06:47:54;;;;;;;8.38;7.32;;;;;;;22.58;55.90;101442.84;5017904;28;20044;-74
2021/09/26 06:50:19;;;;;;;10.27;7.47;;;;;;;22.68;56.41;101461.16;5042197;28;20086;-73
2021/09/26 06:52:45;;;;;;;9.27;7.57;;;;;;;22.70;56.60;101467.91;5023031;28;20045;-74
2021/09/26 06:55:11;;;;;;;10.10;7.28;;;;;;;22.67;56.26;101465.63;5036128;28;20139;-74
2021/09/26 06:57:37;;;;;;;8.23;6.78;;;;;;;22.76;55.88;101464.53;5043435;28;20045;-75
2021/09/26 07:00:05;;;;;;;8.55;7.15;;;;;;;22.79;55.78;101477.44;5041465;28;20040;-76
2021/09/26 07:02:30;;;;;;;9.45;6.88;;;;;;;22.84;56.00;101476.94;5039697;28;20040;-75
2021/09/26 07:04:56;;;;;;;9.38;6.82;;;;;;;22.82;55.50;101477.13;5043502;28;20041;-75
2021/09/26 07:07:24;;;;;;;8.70;6.78;;;;;;;22.86;55.67;101478.38;5033470;28;20048;-75
2021/09/26 07:09:51;;;;;;;8.77;6.63;;;;;;;22.90;55.77;101484.16;5011596;28;20414;-75
2021/09/26 07:12:18;;;;;;;8.55;6.63;;;;;;;22.98;55.40;101485.88;5015831;28;20045;-75
2021/09/26 07:14:44;;;;;;;8.45;6.57;;;;;;;22.91;55.40;101480.47;5044217;28;20499;-75
2021/09/26 07:17:10;;;;;;;9.43;7.05;;;;;;;22.89;55.60;101478.03;5033061;28;20121;-75
2021/09/26 07:19:36;;;;;;;8.90;6.97;;;;;;;23.01;55.18;101496.16;5039728;28;20045;-75
2021/09/26 07:22:02;;;;;;;8.10;6.43;;;;;;;23.00;55.19;101481.22;5013728;28;20810;-75
2021/09/26 07:24:27;;;;;;;8.32;6.55;;;;;;;23.02;55.37;101484.53;5041955;28;20037;-75
2021/09/26 07:26:53;;;;;;;7.85;6.63;;;;;;;23.03;55.28;101481.69;5035153;28;20397;-75
2021/09/26 07:29:19;;;;;;;9.23;6.65;;;;;;;23.16;54.93;101484.50;5030518;28;20511;-75
2021/09/26 07:31:46;;;;;;;7.30;6.57;;;;;;;23.14;54.91;101488.34;5040708;28;20079;-75
2021/09/26 07:34:12;;;;;;;7.90;6.05;;;;;;;23.06;55.05;101480.47;5032422;28;20045;-75
2021/09/26 07:36:37;;;;;;;7.57;6.22;;;;;;;23.13;55.12;101492.00;5036578;28;20025;-75
2021/09/26 07:39:04;;;;;;;8.07;6.30;;;;;;;23.07;55.16;101482.94;5038271;28;20044;-75
2021/09/26 07:41:30;;;;;;;13.93;8.15;;;;;;;23.32;55.48;101486.09;5015832;28;20056;-71
2021/09/26 07:43:56;;;;;;;15.05;8.90;;;;;;;23.60;55.05;101480.94;5031689;28;20021;-72
2021/09/26 07:46:22;;;;;;;15.55;9.80;;;;;;;23.65;54.88;101465.22;5045011;28;20430;-68
2021/09/26 07:48:48;;;;;;;16.38;9.77;;;;;;;23.78;54.77;101485.81;5038348;28;20048;-69
2021/09/26 07:51:14;;;;;;;13.60;8.95;;;;;;;23.81;54.58;101488.09;5041965;28;20060;-71
2021/09/26 07:53:39;;;;;;;13.85;8.77;;;;;;;23.72;55.07;101475.94;5043272;28;20368;-72
2021/09/26 07:56:05;;;;;;;12.75;8.45;;;;;;;23.75;54.77;101483.53;5041496;28;20053;-73
2021/09/26 07:58:31;;;;;;;12.90;8.82;;;;;;;23.66;54.81;101471.34;4995863;28;20399;-76
2021/09/26 08:00:57;;;;;;;11.73;8.25;;;;;;;23.65;55.08;101481.16;5029286;28;20086;-73
2021/09/26 08:03:22;;;;;;;14.48;8.88;;;;;;;23.68;55.13;101486.09;5004146;28;20045;-76
2021/09/26 08:05:48;;;;;;;17.30;8.10;;;;;;;23.64;55.61;101490.16;5023775;28;20042;-77
2021/09/26 08:08:14;;;;;;;14.98;8.18;;;;;;;23.66;55.40;101498.78;5022082;28;20041;-74
2021/09/26 08:10:39;;;;;;;14.15;8.18;;;;;;;23.64;55.53;101489.34;5040757;28;20071;-76
2021/09/26 08:13:05;;;;;;;14.73;8.57;;;;;;;23.57;55.75;101483.97;5022879;28;20048;-75
2021/09/26 08:15:31;;;;;;;12.15;7.90;;;;;;;23.55;55.74;101480.66;5019511;28;20049;-69
2021/09/26 08:17:57;;;;;;;11.95;6.97;;;;;;;23.77;55.28;101481.50;5043515;28;20696;-77
2021/09/26 08:20:23;;;;;;;12.23;7.68;;;;;;;23.74;55.54;101485.38;5016412;28;20110;-81
2021/09/26 08:22:52;;;;;;;11.25;7.53;;;;;;;23.76;55.67;101478.03;5043580;28;20052;-77
2021/09/26 08:25:18;;;;;;;11.57;7.80;;;;;;;23.90;55.13;101483.47;5005198;28;20048;-74
2021/09/26 08:27:44;;;;;;;9.52;6.93;;;;;;;23.84;55.08;101463.75;5041443;28;20398;-76
2021/09/26 08:30:10;;;;;;;12.60;6.80;;;;;;;24.00;55.03;101473.31;5021158;28;20033;-77
2021/09/26 08:32:39;;;;;;;9.73;7.30;;;;;;;23.84;55.19;101465.59;5036481;28;21034;-76
2021/09/26 08:35:06;;;;;;;11.63;8.10;;;;;;;23.86;55.08;101482.19;5024818;28;20046;-74
2021/09/26 08:37:32;;;;;;;10.88;7.00;;;;;;;23.75;55.48;101481.69;5005221;28;20415;-74
2021/09/26 08:39:58;;;;;;;15.93;7.95;;;;;;;23.73;55.64;101490.88;5041675;28;20360;-74
2021/09/26 08:42:24;;;;;;;12.15;8.07;;;;;;;23.69;55.68;101482.44;5019974;28;20127;-74
2021/09/26 08:44:50;;;;;;;11.65;7.85;;;;;;;23.71;55.43;101487.59;5027355;28;20060;-73
2021/09/26 08:47:17;;;;;;;12.82;8.07;;;;;;;23.67;55.39;101488.97;4998544;28;20052;-73
2021/09/26 08:49:43;;;;;;;13.10;8.32;;;;;;;23.66;55.53;101496.13;5046975;28;20052;-73
2021/09/26 08:52:09;;;;;;;11.15;7.25;;;;;;;23.67;55.70;101496.94;5007748;28;20448;-73
2021/09/26 08:54:35;;;;;;;14.63;8.18;;;;;;;23.59;55.89;101497.06;5048171;28;20033;-73
2021/09/26 08:57:00;;;;;;;12.30;7.35;;;;;;;23.59;55.66;101486.44;5024317;28;20049;-72
2021/09/26 08:59:26;;;;;;;13.13;8.05;;;;;;;23.67;55.59;101500.41;5021240;28;20028;-72
2021/09/26 09:01:52;;;;;;;9.43;6.90;;;;;;;23.34;55.79;101464.66;5038588;28;20515;-72
2021/09/26 09:04:36;;;;;;;13.07;8.20;;;;;;;23.58;55.84;101498.91;5015104;28;20476;-72
2021/09/26 09:07:04;;;;;;;11.85;7.60;;;;;;;23.60;55.76;101493.41;5041184;28;20051;-72
2021/09/26 09:09:29;;;;;;;11.13;6.68;;;;;;;23.57;55.81;101496.44;5024782;28;20498;-73
2021/09/26 09:12:01;;;;;;;15.15;8.23;;;;;;;23.46;55.64;101481.75;5030502;28;20099;-73
2021/09/26 09:14:46;;;;;;;11.88;7.70;;;;;;;23.56;55.71;101497.41;5018312;28;20049;-72
2021/09/26 09:17:24;;;;;;;13.98;7.72;;;;;;;23.61;55.79;101497.69;5032276;28;20032;-72
2021/09/26 09:20:12;;;;;;;11.43;7.43;;;;;;;23.54;55.63;101491.47;4991877;28;20053;-72
2021/09/26 09:22:38;;;;;;;10.15;6.90;;;;;;;23.55;55.87;101499.25;5025378;28;20037;-72
2021/09/26 09:25:05;;;;;;;9.75;6.43;;;;;;;23.55;55.91;101493.94;5023849;28;20610;-73
2021/09/26 09:27:31;;;;;;;8.75;6.28;;;;;;;23.55;55.80;101496.59;5033121;28;20574;-73
2021/09/26 09:29:56;;;;;;;10.90;6.60;;;;;;;23.52;55.97;101502.28;5031893;28;20141;-72
2021/09/26 09:32:23;;;;;;;9.82;6.60;;;;;;;23.53;55.66;101498.63;5005707;28;20025;-73
2021/09/26 09:34:49;;;;;;;9.95;6.70;;;;;;;23.45;55.71;101483.59;5034096;28;20033;-73
2021/09/26 09:37:24;;;;;;;11.50;6.97;;;;;;;23.54;55.92;101499.44;5002386;28;20052;-73
2021/09/26 09:40:10;;;;;;;10.00;6.97;;;;;;;23.55;55.76;101504.56;5046115;28;20044;-72
2021/09/26 09:42:38;;;;;;;9.13;7.15;;;;;;;23.51;55.75;101508.59;5022309;28;20447;-73
2021/09/26 09:45:35;;;;;;;9.15;6.70;;;;;;;23.54;55.62;101497.59;5046920;28;20626;-73
2021/09/26 09:48:12;;;;;;;12.50;7.38;;;;;;;23.51;55.79;101500.63;5011475;28;20533;-73
2021/09/26 09:50:46;;;;;;;11.18;7.53;;;;;;;23.49;55.80;101497.31;5018486;28;20037;-73
2021/09/26 09:53:40;;;;;;;11.43;7.10;;;;;;;23.26;55.49;101451.50;5018249;28;20040;-73
2021/09/26 09:56:18;;;;;;;9.02;6.00;;;;;;;23.56;55.51;101498.25;5046789;28;20119;-72
2021/09/26 09:58:57;;;;;;;8.18;6.20;;;;;;;23.56;55.70;101492.09;4995060;28;20067;-73
2021/09/26 10:01:32;;;;;;;10.13;6.40;;;;;;;23.54;55.83;101492.28;5040937;28;20045;-72
2021/09/26 10:04:33;;;;;;;11.50;7.18;;;;;;;23.50;55.80;101483.03;5012149;28;20116;-73
2021/09/26 10:06:59;;;;;;;10.52;6.97;;;;;;;23.49;55.64;101484.03;5039679;28;20039;-72
2021/09/26 10:09:28;;;;;;;8.40;6.30;;;;;;;23.52;55.43;101481.03;5000647;28;20025;-72
2021/09/26 10:12:02;;;;;;;10.23;7.63;;;;;;;23.50;55.38;101486.50;5045681;28;20041;-72
2021/09/26 10:14:35;;;;;;;12.23;7.53;;;;;;;23.39;55.52;101468.41;5012400;28;20076;-73
2021/09/26 10:17:03;;;;;;;9.00;6.65;;;;;;;23.51;55.44;101480.19;5031842;28;20423;-72
2021/09/26 10:19:31;;;;;;;8.68;7.22;;;;;;;23.50;55.59;101481.19;5016852;28;20618;-73
2021/09/26 10:21:59;;;;;;;9.35;6.63;;;;;;;23.54;55.43;101481.66;5025755;28;20049;-73
2021/09/26 10:24:33;;;;;;;9.48;6.47;;;;;;;23.52;55.63;101479.19;5011265;28;21374;-73
2021/09/26 10:27:05;;;;;;;10.80;6.68;;;;;;;23.38;55.55;101452.66;5024523;28;20025;-73
2021/09/26 10:29:32;;;;;;;9.63;6.75;;;;;;;23.48;55.37;101469.09;5046067;28;20052;-72
2021/09/26 10:32:00;;;;;;;11.10;6.95;;;;;;;23.51;55.33;101485.50;5023931;28;20230;-72
2021/09/26 10:34:26;;;;;;;13.25;7.13;;;;;;;23.50;55.42;101477.72;5045829;28;20387;-72
2021/09/26 10:36:52;;;;;;;8.88;6.80;;;;;;;23.51;55.41;101479.34;4999363;28;20044;-73
2021/09/26 10:39:17;;;;;;;9.75;6.72;;;;;;;23.56;55.26;101478.81;5043598;28;20516;-72
2021/09/26 10:42:12;;;;;;;10.05;7.13;;;;;;;23.52;55.33;101473.06;4995391;28;20182;-74
2021/09/26 10:44:44;;;;;;;10.13;6.63;;;;;;;23.44;55.43;101458.03;5044792;28;20053;-74
2021/09/26 10:47:16;;;;;;;9.25;7.10;;;;;;;23.52;55.41;101475.72;5016257;28;20570;-72
2021/09/26 10:49:51;;;;;;;10.13;6.80;;;;;;;23.52;55.50;101468.56;5044587;28;20033;-72
2021/09/26 10:52:42;;;;;;;10.82;6.68;;;;;;;23.52;55.64;101470.41;5020164;28;20044;-72
2021/09/26 10:55:14;;;;;;;11.77;7.10;;;;;;;23.55;55.46;101470.00;5043142;28;20395;-74
2021/09/26 10:57:40;;;;;;;11.02;7.05;;;;;;;23.41;55.44;101453.09;5012433;28;20044;-74
2021/09/26 11:00:07;;;;;;;11.10;7.22;;;;;;;23.56;55.55;101473.50;5034214;28;20441;-74
2021/09/26 11:02:33;;;;;;;8.77;6.72;;;;;;;23.57;55.20;101473.34;5022851;28;20399;-72
2021/09/26 11:05:02;;;;;;;10.63;6.72;;;;;;;23.55;55.56;101471.84;5036450;28;20041;-72
2021/09/26 11:07:30;;;;;;;8.45;6.43;;;;;;;23.51;55.63;101482.84;4991922;28;20480;-75
2021/09/26 11:10:05;;;;;;;9.32;6.85;;;;;;;23.48;55.64;101475.25;5022002;28;20147;-72
2021/09/26 11:12:42;;;;;;;8.35;6.35;;;;;;;23.58;55.57;101482.94;5028756;28;20462;-75
2021/09/26 11:15:17;;;;;;;9.73;7.05;;;;;;;23.55;55.46;101474.50;5039545;28;20052;-72
2021/09/26 11:17:45;;;;;;;8.60;6.53;;;;;;;23.52;55.55;101470.41;5043526;28;20036;-72
2021/09/26 11:20:12;;;;;;;9.13;6.30;;;;;;;23.58;55.75;101487.44;5021458;28;20036;-72
2021/09/26 11:22:38;;;;;;;11.20;5.90;;;;;;;23.56;55.60;101481.47;5045305;28;20542;-72
2021/09/26 11:25:05;;;;;;;10.65;6.80;;;;;;;23.54;55.56;101479.00;5022629;28;20120;-74